createdAt,value
2018-01-27T00:00:12.445Z,32.00
2018-01-27T00:02:15.131Z,31.00
2018-01-27T00:04:17.773Z,30.33
2018-01-27T00:06:21.207Z,30.43
2018-01-27T00:08:23.884Z,31.37
2018-01-27T00:10:26.524Z,30.13
2018-01-27T00:12:29.953Z,28.27
2018-01-27T00:14:32.609Z,28.20
2018-01-27T00:16:35.261Z,29.67
2018-01-27T00:18:38.708Z,28.53
2018-01-27T00:20:41.383Z,28.30
2018-01-27T00:22:51.828Z,31.20
2018-01-27T00:24:54.512Z,30.40
2018-01-27T00:26:57.159Z,30.10
2018-01-27T00:28:59.820Z,29.20
2018-01-27T00:31:03.258Z,29.50
2018-01-27T00:33:05.922Z,27.60
2018-01-27T00:35:08.584Z,27.73
2018-01-27T00:37:11.563Z,29.70
2018-01-27T00:39:14.971Z,29.23
2018-01-27T00:41:17.642Z,29.40
2018-01-27T00:43:20.316Z,30.00
2018-01-27T00:45:23.037Z,28.73
2018-01-27T00:47:25.695Z,29.60
2018-01-27T00:49:28.380Z,32.73
2018-01-27T00:51:31.042Z,31.23
2018-01-27T00:53:33.906Z,32.97
2018-01-27T00:55:36.608Z,33.00
2018-01-27T00:57:39.262Z,35.53
2018-01-27T00:59:41.963Z,36.73
2018-01-27T01:01:44.615Z,34.53
2018-01-27T01:03:47.274Z,34.27
2018-01-27T01:05:49.955Z,33.50
2018-01-27T01:07:52.626Z,35.67
2018-01-27T01:09:56.020Z,33.47
2018-01-27T01:11:59.445Z,34.00
2018-01-27T01:14:02.086Z,33.70
2018-01-27T01:16:05.513Z,33.80
2018-01-27T01:18:08.220Z,31.83
2018-01-27T01:20:10.873Z,30.80
2018-01-27T01:22:13.540Z,31.30
2018-01-27T01:24:16.235Z,31.10
2018-01-27T01:26:18.940Z,30.50
2018-01-27T01:28:21.590Z,32.10
2018-01-27T01:30:24.273Z,31.43
2018-01-27T01:32:26.921Z,32.80
2018-01-27T01:34:29.579Z,31.90
2018-01-27T01:36:32.257Z,32.10
2018-01-27T01:38:34.916Z,31.47
2018-01-27T01:40:38.513Z,30.57
2018-01-27T01:42:47.634Z,33.00
2018-01-27T01:44:51.045Z,30.90
2018-01-27T01:46:53.734Z,30.70
2018-01-27T01:51:33.184Z,29.33
2018-01-27T01:53:35.834Z,29.60
2018-01-27T01:55:39.293Z,30.37
2018-01-27T01:57:41.941Z,33.13
2018-01-27T01:59:44.596Z,34.10
2018-01-27T02:01:47.255Z,34.70
2018-01-27T02:03:50.671Z,34.77
2018-01-27T02:05:53.316Z,33.13
2018-01-27T02:07:56.752Z,34.70
2018-01-27T02:09:59.406Z,35.63
2018-01-27T02:12:02.048Z,38.10
2018-01-27T02:14:04.722Z,35.47
2018-01-27T02:16:07.417Z,38.23
2018-01-27T02:18:10.843Z,38.07
2018-01-27T02:20:13.567Z,38.07
2018-01-27T02:22:17.854Z,39.70
2018-01-27T02:24:20.524Z,38.13
2018-01-27T02:26:23.208Z,38.07
2018-01-27T02:28:25.864Z,38.10
2018-01-27T02:30:28.522Z,38.73
2018-01-27T02:32:31.184Z,38.03
2018-01-27T02:34:34.676Z,39.10
2018-01-27T02:36:38.083Z,40.90
2018-01-27T02:38:40.767Z,36.20
2018-01-27T02:40:43.563Z,38.00
2018-01-27T02:42:46.227Z,38.27
2018-01-27T02:44:49.014Z,38.23
2018-01-27T02:46:51.673Z,38.80
2018-01-27T02:48:54.326Z,38.00
2018-01-27T02:50:57.751Z,38.73
2018-01-27T02:53:00.412Z,38.47
2018-01-27T02:55:03.147Z,40.10
2018-01-27T02:57:05.826Z,37.27
2018-01-27T02:59:08.494Z,39.77
2018-01-27T03:01:11.233Z,38.80
2018-01-27T03:03:13.927Z,38.67
2018-01-27T03:05:16.568Z,39.83
2018-01-27T03:07:19.975Z,38.57
2018-01-27T03:09:22.676Z,39.23
2018-01-27T03:11:25.441Z,40.23
2018-01-27T03:13:28.252Z,41.10
2018-01-27T03:15:30.978Z,37.70
2018-01-27T03:17:33.775Z,38.70
2018-01-27T03:19:36.416Z,37.63
2018-01-27T03:21:39.858Z,38.37
2018-01-27T03:23:42.642Z,39.07
2018-01-27T03:25:45.289Z,38.23
2018-01-27T03:27:47.965Z,38.23
2018-01-27T03:29:50.610Z,38.77
2018-01-27T03:31:54.233Z,39.73
2018-01-27T03:33:56.913Z,40.37
2018-01-27T03:35:59.554Z,38.37
2018-01-27T03:38:02.227Z,35.60
2018-01-27T03:40:04.893Z,35.30
2018-01-27T03:42:07.566Z,37.10
2018-01-27T03:44:10.253Z,38.10
2018-01-27T03:46:12.988Z,37.20
2018-01-27T03:48:15.649Z,38.63
2018-01-27T03:50:18.370Z,39.10
2018-01-27T03:52:21.207Z,38.40
2018-01-27T03:54:23.860Z,37.07
2018-01-27T03:56:27.288Z,38.07
2018-01-27T03:58:29.943Z,36.00
2018-01-27T04:00:32.593Z,37.73
2018-01-27T04:02:35.271Z,37.73
2018-01-27T04:04:38.802Z,37.13
2018-01-27T04:06:41.486Z,37.83
2018-01-27T04:08:44.147Z,38.23
2018-01-27T04:10:46.789Z,42.80
2018-01-27T04:12:49.465Z,44.13
2018-01-27T04:14:52.113Z,43.77
2018-01-27T04:16:54.770Z,44.67
2018-01-27T04:18:57.463Z,44.57
2018-01-27T04:21:00.108Z,47.00
2018-01-27T04:23:02.748Z,44.23
2018-01-27T04:25:06.279Z,43.93
2018-01-27T04:27:08.951Z,48.27
2018-01-27T04:29:11.630Z,45.40
2018-01-27T04:31:14.414Z,48.37
2018-01-27T04:33:17.065Z,45.27
2018-01-27T04:35:20.493Z,45.73
2018-01-27T04:37:23.612Z,44.47
2018-01-27T04:39:26.267Z,45.60
2018-01-27T04:41:28.916Z,46.30
2018-01-27T04:43:31.618Z,49.27
2018-01-27T04:45:34.294Z,45.07
2018-01-27T04:47:37.141Z,46.17
2018-01-27T04:49:39.799Z,47.60
2018-01-27T04:51:43.272Z,44.13
2018-01-27T04:53:45.919Z,45.43
2018-01-27T04:55:48.610Z,45.80
2018-01-27T04:57:51.276Z,42.13
2018-01-27T04:59:53.944Z,44.60
2018-01-27T05:01:56.605Z,44.80
2018-01-27T05:03:59.277Z,45.27
2018-01-27T05:06:02.052Z,43.77
2018-01-27T05:08:04.721Z,43.57
2018-01-27T05:10:07.392Z,44.93
2018-01-27T05:12:10.054Z,41.37
2018-01-27T05:14:13.478Z,43.17
2018-01-27T05:16:16.134Z,43.60
2018-01-27T05:18:18.813Z,44.77
2018-01-27T05:20:21.502Z,41.53
2018-01-27T05:22:24.146Z,43.90
2018-01-27T05:24:27.573Z,44.50
2018-01-27T05:26:30.221Z,42.93
2018-01-27T05:28:33.642Z,44.53
2018-01-27T05:30:36.324Z,43.20
2018-01-27T05:32:39.036Z,44.50
2018-01-27T05:34:41.776Z,47.27
2018-01-27T05:36:44.446Z,45.63
2018-01-27T05:38:47.096Z,45.43
2018-01-27T05:40:50.617Z,46.40
2018-01-27T05:42:53.264Z,45.37
2018-01-27T05:44:56.722Z,43.97
2018-01-27T05:46:59.379Z,46.73
2018-01-27T05:49:02.012Z,50.07
2018-01-27T05:51:05.463Z,45.77
2018-01-27T05:53:08.122Z,46.77
2018-01-27T05:55:10.789Z,47.40
2018-01-27T05:57:13.447Z,46.07
2018-01-27T05:59:16.109Z,45.53
2018-01-27T06:01:19.531Z,46.90
2018-01-27T06:03:22.206Z,47.50
2018-01-27T06:05:24.844Z,46.60
2018-01-27T06:07:27.507Z,45.00
2018-01-27T06:09:30.171Z,45.13
2018-01-27T06:11:32.877Z,44.60
2018-01-27T06:13:36.362Z,45.77
2018-01-27T06:15:39.064Z,47.00
2018-01-27T06:17:42.529Z,49.07
2018-01-27T06:19:45.240Z,47.87
2018-01-27T06:21:47.918Z,47.30
2018-01-27T06:23:50.582Z,48.73
2018-01-27T06:25:54.030Z,48.57
2018-01-27T06:27:57.470Z,49.40
2018-01-27T06:30:00.936Z,47.97
2018-01-27T06:32:04.455Z,47.47
2018-01-27T06:34:07.944Z,48.77
2018-01-27T06:36:10.636Z,48.77
2018-01-27T06:38:14.084Z,48.90
2018-01-27T06:40:16.780Z,47.90
2018-01-27T06:42:19.543Z,48.10
2018-01-27T06:44:22.275Z,46.10
2018-01-27T06:46:24.932Z,46.50
2018-01-27T06:48:28.386Z,47.60
2018-01-27T06:50:31.055Z,47.00
2018-01-27T06:52:33.704Z,48.40
2018-01-27T06:54:36.408Z,49.80
2018-01-27T06:56:39.127Z,48.50
2018-01-27T06:58:42.604Z,48.80
2018-01-27T07:00:45.288Z,49.03
2018-01-27T07:02:47.950Z,49.47
2018-01-27T07:04:50.592Z,45.40
2018-01-27T07:06:53.302Z,46.17
2018-01-27T07:08:55.948Z,45.50
2018-01-27T07:10:58.606Z,48.87
2018-01-27T07:13:01.284Z,47.07
2018-01-27T07:15:04.002Z,46.47
2018-01-27T07:17:06.706Z,46.10
2018-01-27T07:19:10.132Z,50.87
2018-01-27T07:21:12.807Z,46.60
2018-01-27T07:23:15.488Z,49.60
2018-01-27T07:25:18.142Z,48.20
2018-01-27T07:27:20.793Z,48.17
2018-01-27T07:29:23.648Z,46.00
2018-01-27T07:31:26.299Z,45.40
2018-01-27T07:33:28.943Z,47.30
2018-01-27T07:35:32.390Z,45.43
2018-01-27T07:37:35.034Z,47.90
2018-01-27T07:39:37.841Z,47.47
2018-01-27T07:41:40.513Z,43.67
2018-01-27T07:43:43.538Z,44.70
2018-01-27T07:45:46.994Z,43.87
2018-01-27T07:47:49.654Z,45.57
2018-01-27T07:49:52.322Z,45.00
2018-01-27T07:51:54.995Z,44.80
2018-01-27T07:53:57.915Z,43.60
2018-01-27T07:56:00.571Z,42.83
2018-01-27T07:58:03.255Z,44.97
2018-01-27T08:00:05.924Z,42.90
2018-01-27T08:02:08.594Z,42.03
2018-01-27T08:04:11.244Z,42.37
2018-01-27T08:06:13.908Z,44.00
2018-01-27T08:08:17.361Z,40.67
2018-01-27T08:10:20.036Z,42.37
2018-01-27T08:12:22.714Z,42.10
2018-01-27T08:14:25.387Z,44.17
2018-01-27T08:16:28.054Z,45.00
2018-01-27T08:18:30.755Z,43.37
2018-01-27T08:20:33.404Z,44.30
2018-01-27T08:22:36.074Z,39.30
2018-01-27T08:24:38.745Z,41.40
2018-01-27T08:26:41.460Z,41.90
2018-01-27T08:28:44.167Z,41.27
2018-01-27T08:30:47.609Z,40.10
2018-01-27T08:32:50.287Z,38.80
2018-01-27T08:34:52.942Z,38.37
2018-01-27T08:36:55.622Z,39.97
2018-01-27T08:38:58.276Z,37.07
2018-01-27T08:41:00.970Z,35.20
2018-01-27T08:43:03.640Z,39.30
2018-01-27T08:45:06.306Z,37.67
2018-01-27T08:47:09.006Z,37.10
2018-01-27T08:49:11.688Z,39.27
2018-01-27T08:51:14.353Z,38.80
2018-01-27T08:53:17.032Z,37.97
2018-01-27T08:55:19.775Z,37.43
2018-01-27T08:57:23.263Z,38.00
2018-01-27T08:59:26.703Z,38.40
2018-01-27T09:01:29.361Z,39.27
2018-01-27T09:03:32.150Z,38.40
2018-01-27T09:05:34.789Z,40.20
2018-01-27T09:07:38.210Z,39.10
2018-01-27T09:09:40.936Z,39.80
2018-01-27T09:11:43.674Z,41.03
2018-01-27T09:13:46.369Z,42.13
2018-01-27T09:15:49.028Z,42.90
2018-01-27T09:17:51.685Z,41.20
2018-01-27T09:19:54.365Z,41.10
2018-01-27T09:21:57.038Z,40.00
2018-01-27T09:23:59.689Z,40.27
2018-01-27T09:26:03.417Z,41.97
2018-01-27T09:28:06.108Z,41.00
2018-01-27T09:30:08.779Z,40.80
2018-01-27T09:32:11.467Z,38.67
2018-01-27T09:34:15.059Z,37.77
2018-01-27T09:36:17.729Z,38.70
2018-01-27T09:38:20.376Z,38.10
2018-01-27T09:40:23.922Z,39.90
2018-01-27T09:42:26.609Z,40.60
2018-01-27T09:44:29.293Z,36.77
2018-01-27T09:46:31.937Z,36.47
2018-01-27T09:48:34.601Z,38.53
2018-01-27T09:50:37.268Z,36.90
2018-01-27T09:52:39.941Z,33.93
2018-01-27T09:54:42.704Z,36.53
2018-01-27T09:56:46.169Z,33.43
2018-01-27T09:58:48.883Z,35.13
2018-01-27T10:00:51.582Z,34.90
2018-01-27T10:02:54.228Z,35.00
2018-01-27T10:04:57.633Z,33.90
2018-01-27T10:07:00.444Z,32.17
2018-01-27T10:09:03.150Z,32.50
2018-01-27T10:11:05.839Z,30.83
2018-01-27T10:13:08.491Z,31.07
2018-01-27T10:15:11.144Z,30.77
2018-01-27T10:17:13.816Z,32.37
2018-01-27T10:19:16.467Z,31.50
2018-01-27T10:21:19.155Z,30.50
2018-01-27T10:23:21.879Z,32.47
2018-01-27T10:25:24.521Z,31.73
2018-01-27T10:27:27.212Z,31.70
2018-01-27T10:29:29.861Z,31.50
2018-01-27T10:31:32.584Z,28.77
2018-01-27T10:33:35.261Z,29.10
2018-01-27T10:35:37.926Z,28.37
2018-01-27T10:37:40.605Z,29.10
2018-01-27T10:39:43.282Z,28.40
2018-01-27T10:41:45.938Z,28.47
2018-01-27T10:43:48.651Z,30.10
2018-01-27T10:45:51.349Z,29.37
2018-01-27T10:47:54.758Z,29.87
2018-01-27T10:49:57.485Z,29.13
2018-01-27T10:52:00.139Z,27.83
2018-01-27T10:54:02.780Z,28.50
2018-01-27T10:56:05.474Z,29.60
2018-01-27T10:58:08.186Z,26.40
2018-01-27T11:00:10.836Z,27.67
2018-01-27T11:02:13.504Z,25.13
2018-01-27T11:04:16.182Z,28.40
2018-01-27T11:06:18.835Z,28.00
2018-01-27T11:08:21.579Z,26.83
2018-01-27T11:10:24.230Z,24.70
2018-01-27T11:12:26.891Z,26.23
2018-01-27T11:14:29.577Z,26.43
2018-01-27T11:16:38.156Z,25.10
2018-01-27T11:18:40.835Z,26.20
2018-01-27T11:20:43.503Z,27.00
2018-01-27T11:22:46.916Z,24.33
2018-01-27T11:24:49.602Z,25.47
2018-01-27T11:26:52.284Z,24.80
2018-01-27T11:28:55.010Z,23.73
2018-01-27T11:30:57.664Z,22.93
2018-01-27T11:33:00.322Z,23.27
2018-01-27T11:35:02.988Z,23.77
2018-01-27T11:37:05.682Z,22.10
2018-01-27T11:39:08.389Z,22.50
2018-01-27T11:41:11.481Z,23.63
2018-01-27T11:43:14.154Z,24.17
2018-01-27T11:45:17.660Z,20.70
2018-01-27T11:47:21.086Z,21.80
2018-01-27T11:49:23.761Z,22.67
2018-01-27T11:51:26.435Z,22.70
2018-01-27T11:53:29.403Z,21.50
2018-01-27T11:55:32.064Z,21.90
2018-01-27T11:57:35.500Z,19.90
2018-01-27T11:59:38.253Z,21.23
2018-01-27T12:01:40.908Z,21.00
2018-01-27T12:03:44.357Z,23.13
2018-01-27T12:05:47.001Z,23.00
2018-01-27T12:07:49.656Z,22.00
2018-01-27T12:09:53.112Z,22.60
2018-01-27T12:11:55.792Z,22.73
2018-01-27T12:13:58.440Z,22.27
2018-01-27T12:16:01.344Z,23.97
2018-01-27T12:18:04.010Z,22.60
2018-01-27T12:20:06.678Z,22.03
2018-01-27T12:22:09.360Z,22.00
2018-01-27T12:24:12.007Z,24.03
2018-01-27T12:26:14.667Z,23.37
2018-01-27T12:28:18.109Z,23.67
2018-01-27T12:30:20.760Z,22.70
2018-01-27T12:32:23.471Z,24.90
2018-01-27T12:34:26.180Z,24.80
2018-01-27T12:36:29.633Z,24.73
2018-01-27T12:38:32.342Z,24.50
2018-01-27T12:40:35.024Z,22.80
2018-01-27T12:42:38.455Z,23.03
2018-01-27T12:44:41.105Z,22.57
2018-01-27T12:46:44.789Z,24.33
2018-01-27T12:48:47.537Z,23.60
2018-01-27T12:50:50.186Z,23.97
2018-01-27T12:52:52.918Z,23.67
2018-01-27T12:54:55.581Z,22.73
2018-01-27T12:56:58.230Z,23.10
2018-01-27T12:59:00.908Z,23.33
2018-01-27T13:01:03.558Z,22.50
2018-01-27T13:03:06.196Z,21.97
2018-01-27T13:05:08.892Z,22.13
2018-01-27T13:07:12.403Z,21.77
2018-01-27T13:09:15.076Z,20.07
2018-01-27T13:11:17.976Z,20.30
2018-01-27T13:13:20.650Z,19.07
2018-01-27T13:15:23.357Z,20.97
2018-01-27T13:17:26.063Z,21.73
2018-01-27T13:19:29.540Z,21.00
2018-01-27T13:21:32.206Z,21.43
2018-01-27T13:23:35.131Z,19.40
2018-01-27T13:25:37.844Z,18.00
2018-01-27T13:27:40.501Z,17.37
2018-01-27T13:29:43.227Z,17.37
2018-01-27T13:31:45.895Z,18.77
2018-01-27T13:33:48.546Z,18.00
2018-01-27T13:35:51.224Z,18.60
2018-01-27T13:37:53.890Z,17.63
2018-01-27T13:39:56.676Z,17.60
2018-01-27T13:41:59.343Z,17.33
2018-01-27T13:44:02.044Z,16.60
2018-01-27T13:46:05.005Z,16.77
2018-01-27T13:48:07.709Z,15.57
2018-01-27T13:50:10.374Z,15.43
2018-01-27T13:52:13.029Z,15.97
2018-01-27T13:54:15.713Z,16.23
2018-01-27T13:56:18.419Z,15.23
2018-01-27T13:58:21.770Z,15.83
2018-01-27T14:00:24.439Z,15.90
2018-01-27T14:02:27.103Z,16.33
2018-01-27T14:04:30.723Z,18.70
2018-01-27T14:06:33.397Z,15.73
2018-01-27T14:08:36.056Z,15.60
2018-01-27T14:10:38.720Z,14.33
2018-01-27T14:12:42.173Z,16.33
2018-01-27T14:14:44.824Z,15.07
2018-01-27T14:16:47.515Z,15.03
2018-01-27T14:18:50.200Z,15.40
2018-01-27T14:20:52.869Z,15.63
2018-01-27T14:22:55.542Z,16.53
2018-01-27T14:24:58.305Z,15.60
2018-01-27T14:27:00.949Z,15.70
2018-01-27T14:29:04.417Z,15.90
2018-01-27T14:31:07.079Z,15.83
2018-01-27T14:33:09.740Z,15.43
2018-01-27T14:35:12.431Z,15.97
2018-01-27T14:37:15.110Z,14.90
2018-01-27T14:39:19.954Z,15.07
2018-01-27T14:41:22.643Z,14.57
2018-01-27T14:43:26.048Z,15.67
2018-01-27T14:45:28.713Z,14.90
2018-01-27T14:47:32.157Z,16.50
2018-01-27T14:49:34.979Z,15.47
2018-01-27T14:51:37.681Z,15.40
2018-01-27T14:53:40.348Z,13.77
2018-01-27T14:55:43.812Z,15.57
2018-01-27T14:57:46.463Z,14.70
2018-01-27T14:59:49.140Z,14.47
2018-01-27T15:01:51.828Z,14.87
2018-01-27T15:03:55.524Z,14.03
2018-01-27T15:05:58.198Z,14.93
2018-01-27T15:08:00.870Z,13.83
2018-01-27T15:10:03.817Z,14.10
2018-01-27T15:12:06.498Z,14.47
2018-01-27T15:14:09.196Z,14.57
2018-01-27T15:16:11.876Z,14.10
2018-01-27T15:18:14.544Z,14.17
2018-01-27T15:20:17.189Z,13.87
2018-01-27T15:22:19.911Z,13.80
2018-01-27T15:24:22.576Z,15.50
2018-01-27T15:26:25.254Z,15.13
2018-01-27T15:28:27.940Z,15.00
2018-01-27T15:30:31.361Z,16.50
2018-01-27T15:32:33.995Z,14.67
2018-01-27T15:34:36.694Z,15.47
2018-01-27T15:36:39.436Z,16.27
2018-01-27T15:38:42.225Z,16.10
2018-01-27T15:40:44.906Z,16.47
2018-01-27T15:42:47.572Z,15.77
2018-01-27T15:44:50.261Z,15.17
2018-01-27T15:46:52.925Z,16.07
2018-01-27T15:48:55.620Z,16.67
2018-01-27T15:50:58.323Z,15.57
2018-01-27T15:53:00.982Z,13.67
2018-01-27T15:55:03.743Z,15.93
2018-01-27T15:57:06.597Z,16.53
2018-01-27T15:59:09.386Z,15.20
2018-01-27T16:01:12.268Z,15.37
2018-01-27T16:03:14.964Z,16.30
2018-01-27T16:05:17.612Z,17.07
2018-01-27T16:07:20.448Z,17.90
2018-01-27T16:09:23.115Z,15.10
2018-01-27T16:11:25.783Z,14.73
2018-01-27T16:13:28.464Z,16.70
2018-01-27T16:15:31.144Z,15.80
2018-01-27T16:17:33.813Z,16.53
2018-01-27T16:19:36.498Z,16.40
2018-01-27T16:21:39.157Z,15.60
2018-01-27T16:23:41.804Z,16.10
2018-01-27T16:25:44.488Z,15.60
2018-01-27T16:27:48.569Z,16.40
2018-01-27T16:29:52.018Z,15.90
2018-01-27T16:31:54.719Z,15.40
2018-01-27T16:33:57.440Z,14.73
2018-01-27T16:36:00.112Z,15.50
2018-01-27T16:38:04.093Z,13.20
2018-01-27T16:40:07.660Z,15.17
2018-01-27T16:42:10.329Z,15.17
2018-01-27T16:44:12.988Z,14.27
2018-01-27T16:46:15.676Z,15.90
2018-01-27T16:48:18.358Z,16.00
2018-01-27T16:50:21.023Z,15.07
2018-01-27T16:52:23.688Z,16.00
2018-01-27T16:54:26.364Z,16.33
2018-01-27T16:56:29.004Z,14.63
2018-01-27T16:58:32.432Z,14.80
2018-01-27T17:00:35.142Z,14.23
2018-01-27T17:02:38.729Z,13.93
2018-01-27T17:04:42.307Z,15.60
2018-01-27T17:06:44.985Z,15.03
2018-01-27T17:08:47.653Z,14.67
2018-01-27T17:10:50.304Z,16.60
2018-01-27T17:12:52.998Z,14.60
2018-01-27T17:14:56.158Z,14.70
2018-01-27T17:16:59.778Z,14.30
2018-01-27T17:19:02.442Z,14.13
2018-01-27T17:21:05.120Z,14.27
2018-01-27T17:23:07.921Z,13.80
2018-01-27T17:25:10.575Z,14.27
2018-01-27T17:27:13.243Z,14.53
2018-01-27T17:29:16.678Z,14.83
2018-01-27T17:31:19.358Z,14.90
2018-01-27T17:33:21.996Z,13.57
2018-01-27T17:35:24.706Z,13.30
2018-01-27T17:37:27.364Z,13.83
2018-01-27T17:39:30.025Z,14.10
2018-01-27T17:41:32.923Z,13.07
2018-01-27T17:43:35.838Z,12.57
2018-01-27T17:45:38.663Z,10.73
2018-01-27T17:47:41.336Z,9.20
2018-01-27T17:49:44.754Z,9.23
2018-01-27T17:51:47.469Z,7.90
2018-01-27T17:53:50.122Z,7.87
2018-01-27T17:55:53.195Z,6.67
2018-01-27T17:57:55.898Z,6.13
2018-01-27T17:59:58.529Z,5.73
2018-01-27T18:02:01.454Z,4.50
2018-01-27T18:04:04.328Z,4.83
2018-01-27T18:06:07.464Z,4.33
2018-01-27T18:08:10.873Z,3.63
2018-01-27T18:10:13.610Z,3.77
2018-01-27T18:12:17.131Z,4.07
2018-01-27T18:14:19.785Z,4.10
2018-01-27T18:16:22.463Z,4.03
2018-01-27T18:18:25.125Z,3.80
2018-01-27T18:20:28.538Z,3.40
2018-01-27T18:22:31.211Z,3.53
2018-01-27T18:24:33.861Z,3.50
2018-01-27T18:26:36.505Z,2.93
2018-01-27T18:28:39.181Z,3.47
2018-01-27T18:30:41.841Z,3.27
2018-01-27T18:32:44.500Z,3.50
2018-01-27T18:34:48.054Z,3.90
2018-01-27T18:36:50.725Z,3.47
2018-01-27T18:38:53.425Z,3.80
2018-01-27T18:40:56.092Z,4.20
2018-01-27T18:42:58.756Z,4.00
2018-01-27T18:45:01.445Z,3.60
2018-01-27T18:47:04.093Z,3.83
2018-01-27T18:49:06.741Z,3.80
2018-01-27T18:51:10.194Z,3.60
2018-01-27T18:53:12.840Z,3.60
2018-01-27T18:55:15.528Z,4.40
2018-01-27T18:57:18.246Z,3.80
2018-01-27T18:59:22.366Z,3.87
2018-01-27T19:01:25.117Z,3.80
2018-01-27T19:03:27.790Z,4.70
2018-01-27T19:05:30.424Z,3.93
2018-01-27T19:07:33.104Z,4.13
2018-01-27T19:09:35.878Z,4.20
2018-01-27T19:11:38.566Z,4.80
2018-01-27T19:13:41.248Z,4.43
2018-01-27T19:15:44.135Z,4.37
2018-01-27T19:17:46.795Z,4.37
2018-01-27T19:19:49.456Z,5.03
2018-01-27T19:21:52.122Z,4.80
2018-01-27T19:23:55.520Z,4.80
2018-01-27T19:25:58.191Z,5.20
2018-01-27T19:28:01.808Z,5.20
2018-01-27T19:30:04.474Z,4.53
2018-01-27T19:32:07.343Z,4.90
2018-01-27T19:34:10.006Z,4.30
2018-01-27T19:36:14.437Z,4.80
2018-01-27T19:38:17.980Z,4.87
2018-01-27T19:40:20.834Z,5.30
2018-01-27T19:42:24.017Z,4.90
2018-01-27T19:44:26.748Z,5.03
2018-01-27T19:46:29.402Z,6.00
2018-01-27T19:48:32.090Z,5.67
2018-01-27T19:50:34.830Z,5.83
2018-01-27T19:52:37.484Z,5.90
2018-01-27T19:54:40.926Z,5.83
2018-01-27T19:56:43.666Z,5.93
2018-01-27T19:58:46.375Z,5.37
2018-01-27T20:00:49.027Z,6.20
2018-01-27T20:02:51.668Z,5.90
2018-01-27T20:04:54.328Z,5.90
2018-01-27T20:06:56.970Z,6.00
2018-01-27T20:09:00.496Z,5.40
2018-01-27T20:11:03.230Z,5.53
2018-01-27T20:13:06.046Z,5.50
2018-01-27T20:15:10.244Z,5.57
2018-01-27T20:17:12.988Z,5.40
2018-01-27T20:19:15.775Z,6.33
2018-01-27T20:21:18.481Z,6.60
2018-01-27T20:23:21.137Z,6.37
2018-01-27T20:25:23.930Z,6.20
2018-01-27T20:27:26.622Z,6.20
2018-01-27T20:29:29.481Z,5.93
2018-01-27T20:31:32.188Z,6.10
2018-01-27T20:33:36.042Z,7.63
2018-01-27T20:35:38.715Z,6.70
2018-01-27T20:37:41.401Z,6.40
2018-01-27T20:39:44.690Z,6.03
2018-01-27T20:41:47.370Z,6.50
2018-01-27T20:43:50.043Z,7.60
2018-01-27T20:45:52.684Z,6.60
2018-01-27T20:47:56.148Z,7.10
2018-01-27T20:49:58.788Z,7.03
2018-01-27T20:52:01.620Z,6.23
2018-01-27T20:54:04.348Z,7.20
2018-01-27T20:56:07.162Z,6.83
2018-01-27T20:58:10.116Z,7.67
2018-01-27T21:00:13.550Z,6.53
2018-01-27T21:02:18.733Z,6.93
2018-01-27T21:04:22.438Z,6.67
2018-01-27T21:06:25.313Z,6.17
2018-01-27T21:08:28.020Z,6.53
2018-01-27T21:10:30.769Z,5.97
2018-01-27T21:12:33.573Z,5.70
2018-01-27T21:14:36.325Z,5.83
2018-01-27T21:16:41.075Z,5.80
2018-01-27T21:18:43.843Z,6.40
2018-01-27T21:20:46.606Z,6.10
2018-01-27T21:22:49.274Z,6.03
2018-01-27T21:24:51.951Z,6.40
2018-01-27T21:26:54.588Z,6.07
2018-01-27T21:28:58.008Z,6.10
2018-01-27T21:31:01.629Z,5.27
2018-01-27T21:33:04.410Z,6.17
2018-01-27T21:35:07.301Z,5.87
2018-01-27T21:37:10.486Z,5.80
2018-01-27T21:39:13.264Z,5.77
2018-01-27T21:41:15.945Z,6.47
2018-01-27T21:43:18.687Z,5.37
2018-01-27T21:45:22.329Z,5.97
2018-01-27T21:47:25.823Z,5.50
2018-01-27T21:49:28.709Z,7.00
2018-01-27T21:51:32.507Z,4.97
2018-01-27T21:53:35.282Z,6.33
2018-01-27T21:55:37.968Z,6.50
2018-01-27T21:57:41.026Z,6.27
2018-01-27T21:59:44.657Z,6.20
2018-01-27T22:01:48.109Z,6.07
2018-01-27T22:03:51.021Z,5.77
2018-01-27T22:05:53.879Z,5.83
2018-01-27T22:07:56.549Z,5.10
2018-01-27T22:09:59.235Z,5.90
2018-01-27T22:12:02.544Z,5.43
2018-01-27T22:14:05.391Z,5.63
2018-01-27T22:16:08.077Z,5.67
2018-01-27T22:18:10.747Z,6.17
2018-01-27T22:20:13.400Z,6.07
2018-01-27T22:22:16.831Z,6.93
2018-01-27T22:24:20.648Z,6.20
2018-01-27T22:26:23.756Z,6.20
2018-01-27T22:28:26.425Z,6.67
2018-01-27T22:30:29.074Z,6.80
2018-01-27T22:32:31.756Z,5.77
2018-01-27T22:34:34.624Z,5.10
2018-01-27T22:36:37.287Z,6.30
2018-01-27T22:38:39.972Z,7.20
2018-01-27T22:40:42.732Z,6.23
2018-01-27T22:42:46.160Z,6.30
2018-01-27T22:44:49.023Z,6.00
2018-01-27T22:46:54.711Z,6.27
2018-01-27T22:48:57.391Z,6.17
2018-01-27T22:51:00.355Z,5.63
2018-01-27T22:53:03.025Z,6.50
2018-01-27T22:55:05.990Z,6.50
2018-01-27T22:57:08.652Z,6.10
2018-01-27T22:59:12.072Z,6.13
2018-01-27T23:01:20.774Z,6.43
2018-01-27T23:03:23.533Z,6.80
2018-01-27T23:05:26.987Z,6.27
2018-01-27T23:07:30.450Z,6.83
2018-01-27T23:09:33.096Z,7.00
2018-01-27T23:11:36.819Z,6.93
2018-01-27T23:13:39.880Z,7.03
2018-01-27T23:15:46.298Z,7.63
2018-01-27T23:17:48.985Z,7.67
2018-01-27T23:19:51.655Z,8.27
2018-01-27T23:21:54.338Z,8.60
2018-01-27T23:23:57.015Z,8.60
2018-01-27T23:25:59.665Z,9.47
2018-01-27T23:28:02.329Z,8.40
2018-01-27T23:30:05.004Z,8.90
2018-01-27T23:32:07.651Z,9.47
2018-01-27T23:34:11.051Z,9.60
2018-01-27T23:36:14.515Z,9.40
2018-01-27T23:38:17.166Z,10.47
2018-01-27T23:40:19.870Z,10.00
2018-01-27T23:42:22.548Z,10.53
2018-01-27T23:44:25.190Z,10.40
2018-01-27T23:46:27.875Z,10.23
2018-01-27T23:48:30.630Z,10.50
2018-01-27T23:50:33.308Z,11.40
2018-01-27T23:52:35.995Z,10.20
2018-01-27T23:54:38.644Z,12.17
2018-01-27T23:56:41.322Z,10.60
2018-01-27T23:58:43.980Z,12.07
